createdAt,value
2018-07-06T00:00:02.837Z,15.8
2018-07-06T00:05:02.520Z,15.8
2018-07-06T00:10:03.006Z,15.8
2018-07-06T00:15:02.428Z,15.8
2018-07-06T00:20:02.811Z,15.6
2018-07-06T00:25:03.187Z,15.6
2018-07-06T00:30:02.633Z,15.5
2018-07-06T00:35:03.035Z,15.5
2018-07-06T00:40:02.477Z,15.1
2018-07-06T00:45:02.921Z,15.3
2018-07-06T00:50:02.280Z,15.1
2018-07-06T00:55:02.712Z,15.3
2018-07-06T01:00:03.100Z,15.3
2018-07-06T01:05:02.485Z,15.3
2018-07-06T01:10:03.008Z,15.3
2018-07-06T01:15:02.724Z,15.3
2018-07-06T01:20:02.307Z,15.3
2018-07-06T01:25:02.736Z,15.3
2018-07-06T01:30:03.197Z,15.3
2018-07-06T01:35:02.741Z,15.3
2018-07-06T01:40:03.196Z,15.3
2018-07-06T01:45:02.635Z,15.1
2018-07-06T01:50:03.081Z,15.1
2018-07-06T01:55:02.509Z,15.1
2018-07-06T02:00:02.936Z,15.1
2018-07-06T02:05:02.385Z,15.1
2018-07-06T02:10:02.864Z,15.1
2018-07-06T02:15:02.277Z,15.1
2018-07-06T02:20:02.755Z,15.0
2018-07-06T02:25:03.081Z,15.0
2018-07-06T02:30:02.412Z,15.0
2018-07-06T02:35:02.885Z,15.1
2018-07-06T02:40:02.313Z,15.1
2018-07-06T02:45:02.744Z,15.3
2018-07-06T02:50:03.229Z,15.3
2018-07-06T02:55:02.675Z,15.3
2018-07-06T03:00:02.584Z,15.5
2018-07-06T03:05:03.088Z,15.5
2018-07-06T03:10:02.560Z,15.8
2018-07-06T03:15:02.964Z,15.8
2018-07-06T03:20:02.400Z,15.8
2018-07-06T03:25:02.787Z,15.8
2018-07-06T03:30:03.249Z,15.8
2018-07-06T03:35:02.617Z,16.0
2018-07-06T03:40:03.017Z,16.0
2018-07-06T03:45:02.405Z,16.2
2018-07-06T03:50:02.949Z,16.2
2018-07-06T03:55:02.407Z,16.2
2018-07-06T04:00:02.622Z,16.2
2018-07-06T04:05:03.070Z,16.2
2018-07-06T04:10:02.528Z,16.3
2018-07-06T04:15:03.006Z,16.3
2018-07-06T04:20:02.492Z,16.3
2018-07-06T04:25:03.036Z,16.6
2018-07-06T04:30:02.804Z,16.7
2018-07-06T04:35:03.213Z,16.7
2018-07-06T04:40:02.708Z,16.7
2018-07-06T04:45:03.170Z,17.0
2018-07-06T04:50:02.580Z,17.0
2018-07-06T04:55:03.084Z,17.1
2018-07-06T05:00:02.542Z,17.2
2018-07-06T05:05:03.039Z,17.2
2018-07-06T05:10:02.544Z,17.3
2018-07-06T05:15:02.958Z,17.3
2018-07-06T05:20:02.378Z,17.5
2018-07-06T05:25:02.855Z,17.7
2018-07-06T05:30:02.273Z,17.7
2018-07-06T05:35:02.756Z,17.7
2018-07-06T05:40:02.271Z,18.1
2018-07-06T05:45:02.739Z,18.1
2018-07-06T05:50:02.275Z,18.1
2018-07-06T05:55:02.751Z,18.2
2018-07-06T06:00:03.145Z,18.2
2018-07-06T06:05:02.571Z,18.1
2018-07-06T06:10:03.062Z,18.5
2018-07-06T06:15:02.505Z,18.2
2018-07-06T06:20:03.036Z,18.6
2018-07-06T06:25:02.518Z,18.7
2018-07-06T06:30:02.996Z,18.7
2018-07-06T06:35:02.436Z,19.1
2018-07-06T06:45:02.551Z,18.5
2018-07-06T06:50:03.088Z,18.8
2018-07-06T06:55:02.555Z,19.0
2018-07-06T07:00:03.010Z,19.1
2018-07-06T07:05:02.447Z,19.2
2018-07-06T07:10:02.921Z,19.7
2018-07-06T07:15:02.325Z,19.7
2018-07-06T07:20:03.578Z,19.7
2018-07-06T07:25:03.090Z,19.5
2018-07-06T07:30:02.826Z,20.2
2018-07-06T07:40:03.233Z,21.3
2018-07-06T07:45:02.641Z,21.7
2018-07-06T07:50:03.100Z,22.0
2018-07-06T07:55:02.583Z,20.8
2018-07-06T08:00:02.321Z,21.3
2018-07-06T08:05:02.841Z,23.7
2018-07-06T08:10:02.342Z,24.2
2018-07-06T08:15:02.761Z,24.0
2018-07-06T08:20:03.265Z,24.8
2018-07-06T08:25:02.664Z,23.7
2018-07-06T08:30:03.156Z,22.0
2018-07-06T08:35:02.645Z,23.7
2018-07-06T08:40:03.125Z,24.6
2018-07-06T08:45:02.597Z,26.5
2018-07-06T08:50:02.858Z,26.8
2018-07-06T08:55:02.331Z,25.3
2018-07-06T09:00:02.834Z,24.3
2018-07-06T09:05:02.361Z,26.5
2018-07-06T09:10:02.941Z,24.8
2018-07-06T09:15:02.416Z,25.2
2018-07-06T09:20:03.099Z,25.3
2018-07-06T09:25:02.974Z,24.5
2018-07-06T09:30:02.734Z,26.2
2018-07-06T09:35:03.186Z,26.6
2018-07-06T09:40:02.896Z,26.7
2018-07-06T09:45:02.605Z,26.7
2018-07-06T09:50:03.097Z,27.7
2018-07-06T09:55:02.830Z,26.2
2018-07-06T10:00:02.613Z,26.6
2018-07-06T10:05:03.130Z,26.6
2018-07-06T10:10:02.580Z,27.3
2018-07-06T10:15:03.051Z,28.1
2018-07-06T10:20:02.584Z,27.5
2018-07-06T10:30:02.623Z,29.2
2018-07-06T10:35:03.084Z,28.3
2018-07-06T10:40:02.611Z,27.8
2018-07-06T10:45:02.318Z,28.3
2018-07-06T10:50:02.806Z,27.5
2018-07-06T10:55:02.413Z,28.8
2018-07-06T11:00:02.894Z,28.3
2018-07-06T11:05:02.401Z,29.2
2018-07-06T11:10:02.437Z,28.3
2018-07-06T11:15:03.057Z,28.2
2018-07-06T11:20:02.521Z,28.8
2018-07-06T11:25:03.019Z,29.0
2018-07-06T11:30:02.676Z,29.0
2018-07-06T11:35:03.192Z,30.1
2018-07-06T11:40:02.713Z,30.3
2018-07-06T11:45:03.213Z,30.8
2018-07-06T11:50:03.137Z,31.2
2018-07-06T11:55:02.606Z,28.2
2018-07-06T12:00:03.112Z,29.0
2018-07-06T12:05:02.549Z,30.0
2018-07-06T12:10:03.033Z,27.7
2018-07-06T12:15:02.537Z,28.2
2018-07-06T12:20:03.067Z,29.0
2018-07-06T12:25:02.492Z,28.5
2018-07-06T12:30:02.977Z,28.3
2018-07-06T12:35:02.443Z,30.0
2018-07-06T12:40:02.991Z,29.5
2018-07-06T12:45:02.389Z,30.6
2018-07-06T12:50:02.851Z,30.8
2018-07-06T12:55:03.228Z,29.0
2018-07-06T13:00:02.645Z,28.5
2018-07-06T13:05:03.225Z,29.2
2018-07-06T13:10:02.684Z,28.5
2018-07-06T13:15:03.213Z,27.8
2018-07-06T13:20:02.686Z,28.5
2018-07-06T13:25:03.112Z,30.1
2018-07-06T13:30:02.578Z,29.7
2018-07-06T13:35:03.006Z,28.2
2018-07-06T13:40:02.513Z,27.8
2018-07-06T13:45:02.998Z,27.7
2018-07-06T13:50:02.409Z,28.0
2018-07-06T13:55:02.907Z,30.2
2018-07-06T14:00:02.342Z,29.0
2018-07-06T14:05:02.779Z,28.6
2018-07-06T14:10:03.239Z,28.6
2018-07-06T14:15:02.665Z,28.6
2018-07-06T14:20:03.139Z,30.1
2018-07-06T14:25:02.907Z,29.0
2018-07-06T14:30:02.297Z,28.1
2018-07-06T14:35:02.962Z,28.8
2018-07-06T14:40:02.491Z,28.1
2018-07-06T14:45:02.983Z,27.7
2018-07-06T14:50:02.420Z,28.1
2018-07-06T14:55:02.907Z,28.0
2018-07-06T15:00:02.427Z,26.7
2018-07-06T15:05:02.949Z,26.8
2018-07-06T15:10:02.488Z,26.5
2018-07-06T15:15:02.943Z,26.7
2018-07-06T15:20:02.386Z,27.1
2018-07-06T15:25:02.820Z,27.8
2018-07-06T15:30:03.258Z,29.5
2018-07-06T15:35:02.592Z,29.1
2018-07-06T15:40:03.184Z,28.2
2018-07-06T15:45:02.557Z,28.7
2018-07-06T15:50:02.921Z,28.8
2018-07-06T15:55:02.361Z,29.1
2018-07-06T16:00:02.750Z,29.1
2018-07-06T16:05:03.243Z,27.2
2018-07-06T16:10:02.708Z,26.5
2018-07-06T16:15:03.070Z,26.2
2018-07-06T16:20:02.440Z,26.0
2018-07-06T16:25:03.043Z,26.0
2018-07-06T16:30:02.447Z,26.2
2018-07-06T16:35:02.889Z,27.2
2018-07-06T16:40:02.344Z,27.1
2018-07-06T16:45:02.769Z,26.0
2018-07-06T16:50:03.222Z,26.0
2018-07-06T16:55:02.686Z,26.2
2018-07-06T17:00:03.109Z,25.7
2018-07-06T17:05:02.503Z,27.7
2018-07-06T17:10:02.995Z,28.3
2018-07-06T17:15:02.377Z,28.8
2018-07-06T17:20:02.942Z,28.5
2018-07-06T17:25:02.345Z,27.8
2018-07-06T17:30:02.854Z,27.2
2018-07-06T17:35:03.255Z,26.8
2018-07-06T17:40:02.771Z,26.7
2018-07-06T17:45:03.170Z,26.6
2018-07-06T17:50:02.615Z,26.7
2018-07-06T17:55:03.030Z,26.5
2018-07-06T18:00:02.539Z,26.2
2018-07-06T18:05:02.918Z,26.7
2018-07-06T18:10:02.368Z,26.6
2018-07-06T18:15:02.815Z,26.2
2018-07-06T18:20:02.254Z,26.2
2018-07-06T18:25:02.956Z,25.2
2018-07-06T18:30:02.378Z,25.7
2018-07-06T18:35:02.964Z,24.3
2018-07-06T18:40:02.431Z,24.2
2018-07-06T18:45:02.919Z,24.0
2018-07-06T18:50:02.419Z,23.7
2018-07-06T18:55:02.951Z,23.3
2018-07-06T19:00:02.362Z,23.1
2018-07-06T19:05:02.792Z,22.7
2018-07-06T19:10:02.309Z,22.7
2018-07-06T19:15:02.783Z,22.6
2018-07-06T19:20:02.262Z,22.5
2018-07-06T19:25:02.731Z,22.2
2018-07-06T19:30:03.146Z,22.1
2018-07-06T19:35:02.603Z,22.0
2018-07-06T19:40:03.059Z,21.8
2018-07-06T19:45:02.521Z,21.8
2018-07-06T19:50:03.064Z,21.6
2018-07-06T19:55:02.455Z,21.5
2018-07-06T20:00:03.216Z,21.2
2018-07-06T20:05:02.679Z,21.2
2018-07-06T20:10:03.191Z,21.0
2018-07-06T20:15:02.634Z,20.8
2018-07-06T20:20:03.286Z,20.8
2018-07-06T20:25:02.791Z,20.7
2018-07-06T20:30:03.247Z,20.7
2018-07-06T20:35:02.848Z,20.7
2018-07-06T20:40:02.375Z,20.6
2018-07-06T20:45:03.148Z,20.3
2018-07-06T20:50:02.658Z,20.2
2018-07-06T20:55:03.150Z,20.2
2018-07-06T21:00:02.634Z,20.2
2018-07-06T21:05:03.084Z,20.2
2018-07-06T21:10:02.545Z,20.1
2018-07-06T21:15:02.964Z,20.0
2018-07-06T21:20:02.471Z,19.7
2018-07-06T21:25:02.920Z,19.7
2018-07-06T21:30:02.467Z,19.5
2018-07-06T21:35:03.096Z,19.3
2018-07-06T21:40:02.581Z,19.2
2018-07-06T21:45:03.008Z,19.2
2018-07-06T21:50:02.418Z,19.0
2018-07-06T21:55:02.895Z,19.0
2018-07-06T22:00:02.323Z,19.0
2018-07-06T22:05:02.777Z,18.7
2018-07-06T22:10:03.253Z,18.7
2018-07-06T22:15:02.650Z,18.5
2018-07-06T22:20:03.094Z,18.2
2018-07-06T22:25:02.527Z,18.2
2018-07-06T22:30:03.018Z,18.2
2018-07-06T22:35:02.500Z,18.1
2018-07-06T22:40:02.953Z,18.2
2018-07-06T22:45:02.436Z,17.8
2018-07-06T22:50:02.942Z,18.1
2018-07-06T22:55:02.335Z,18.1
2018-07-06T23:00:02.829Z,17.8
2018-07-06T23:05:02.757Z,17.7
2018-07-06T23:10:02.283Z,17.7
2018-07-06T23:15:02.644Z,17.7
2018-07-06T23:20:03.071Z,17.5
2018-07-06T23:25:02.455Z,17.3
2018-07-06T23:30:02.893Z,17.1
2018-07-06T23:35:02.290Z,17.0
2018-07-06T23:40:02.811Z,16.7
2018-07-06T23:45:03.178Z,16.7
2018-07-06T23:50:02.605Z,16.7
2018-07-06T23:55:03.025Z,16.6
